Date,TemperatureHighF,TemperatureAvgF,TemperatureLowF,DewpointHighF,DewpointAvgF,DewpointLowF,HumidityHigh,HumidityAvg,HumidityLow,PressureMaxIn,PressureMinIn,WindSpeedMaxMPH,WindSpeedAvgMPH,GustSpeedMaxMPH,PrecipitationSumIn
2013-4-1,76,66,60,62,59,56,93,79,54,29.95,29.85,9,4,14,0.01
2013-4-2,63,58,51,58,49,42,95,72,49,30.15,29.96,6,1,12,0.00
2013-4-3,67,56,50,57,50,44,99,81,58,30.25,30.08,10,2,12,0.00
2013-4-4,64,56,50,63,52,46,99,86,68,30.25,29.84,10,3,26,0.41
2013-4-5,59,52,45,51,48,44,97,88,72,30.04,29.89,12,6,16,0.12
2013-4-6,69,58,48,54,49,37,97,76,31,30.24,30.04,9,2,11,0.00
2013-4-7,74,63,51,62,57,51,98,82,50,30.26,30.15,6,1,9,0.00
2013-4-8,76,66,54,65,60,53,99,84,64,30.20,30.13,11,2,16,0.00
2013-4-9,79,69,59,67,64,59,99,83,60,30.23,30.14,11,3,15,0.00
2013-4-10,77,69,60,66,64,59,99,84,61,30.18,30.04,12,3,15,0.00
2013-4-11,75,70,64,72,68,63,99,93,87,30.04,29.86,15,3,15,0.00
2013-4-12,77,71,68,72,69,67,97,93,85,29.87,29.74,16,6,25,0.31
2013-4-13,74,66,57,68,54,49,95,67,44,30.03,29.83,9,2,11,0.00
2013-4-14,72,64,55,64,60,54,99,88,71,30.10,29.94,3,0,8,0.24
2013-4-15,75,67,63,66,64,62,99,90,69,30.16,29.89,6,1,14,0.88
2013-4-16,78,70,60,67,64,60,99,83,61,30.25,30.16,5,1,8,0.01
2013-4-17,80,70,62,68,64,61,99,83,57,30.24,30.15,5,1,9,0.00
2013-4-18,79,72,65,70,67,64,98,85,66,30.15,30.04,5,1,12,0.00
2013-4-19,78,73,68,73,70,68,98,92,83,30.04,29.87,20,5,27,1.19
2013-4-20,69,56,48,68,51,45,97,83,60,30.25,29.94,11,5,24,0.47
2013-4-21,67,58,47,55,50,45,96,77,59,30.35,30.24,14,3,23,0.00
2013-4-22,69,58,49,54,49,40,84,71,58,30.30,30.12,19,7,23,0.00
2013-4-23,66,58,54,58,53,49,96,85,74,30.21,30.14,15,4,16,0.00
2013-4-24,75,64,51,64,58,50,99,84,59,30.20,30.08,12,2,15,0.00
2013-4-25,80,70,64,69,65,64,98,86,61,30.23,30.09,11,3,15,0.55
2013-4-26,74,65,58,64,56,38,99,76,28,30.38,30.23,9,2,14,0.00
2013-4-27,74,65,57,61,56,51,97,76,46,30.34,30.24,4,1,9,0.00
2013-4-28,74,68,60,67,64,58,97,87,74,30.23,30.05,8,1,11,0.00
2013-4-29,78,70,64,70,66,63,98,90,71,30.07,29.96,13,2,15,0.77
2013-4-30,75,68,64,68,65,61,99,91,71,30.09,29.96,11,2,11,0.00